sensor_id;sensor_type;location;lat;lon;timestamp;temperature;humidity
67974;DHT22;54756;51.140;6.952;2023-12-07T00:00:13;1.50;99.90
67974;DHT22;54756;51.140;6.952;2023-12-07T00:02:14;1.50;99.90
67974;DHT22;54756;51.140;6.952;2023-12-07T00:04:14;1.50;99.90
67974;DHT22;54756;51.140;6.952;2023-12-07T00:06:15;1.50;99.90
67974;DHT22;54756;51.140;6.952;2023-12-07T00:08:15;1.40;99.90
67974;DHT22;54756;51.140;6.952;2023-12-07T00:10:16;1.40;99.90
67974;DHT22;54756;51.140;6.952;2023-12-07T00:12:17;1.40;99.90
67974;DHT22;54756;51.140;6.952;2023-12-07T00:14:17;1.40;99.90
67974;DHT22;54756;51.140;6.952;2023-12-07T00:16:18;1.40;99.90
67974;DHT22;54756;51.140;6.952;2023-12-07T00:18:18;1.40;99.90
67974;DHT22;54756;51.140;6.952;2023-12-07T00:20:19;1.40;99.90
67974;DHT22;54756;51.140;6.952;2023-12-07T00:22:20;1.40;99.90
67974;DHT22;54756;51.140;6.952;2023-12-07T00:24:20;1.30;99.90
67974;DHT22;54756;51.140;6.952;2023-12-07T00:26:21;1.30;99.90
67974;DHT22;54756;51.140;6.952;2023-12-07T00:28:21;1.30;99.90
67974;DHT22;54756;51.140;6.952;2023-12-07T00:30:22;1.30;99.90
67974;DHT22;54756;51.140;6.952;2023-12-07T00:32:23;1.30;99.90
67974;DHT22;54756;51.140;6.952;2023-12-07T00:34:23;1.30;99.90
67974;DHT22;54756;51.140;6.952;2023-12-07T00:36:24;1.20;99.90
67974;DHT22;54756;51.140;6.952;2023-12-07T00:38:24;1.20;99.90
67974;DHT22;54756;51.140;6.952;2023-12-07T00:40:25;1.20;99.90
67974;DHT22;54756;51.140;6.952;2023-12-07T00:42:25;1.20;99.90
67974;DHT22;54756;51.140;6.952;2023-12-07T00:44:26;1.10;99.90
67974;DHT22;54756;51.140;6.952;2023-12-07T00:46:26;1.10;99.90
67974;DHT22;54756;51.140;6.952;2023-12-07T00:48:27;1.10;99.90
67974;DHT22;54756;51.140;6.952;2023-12-07T00:50:27;1.10;99.90
67974;DHT22;54756;51.140;6.952;2023-12-07T00:52:28;1.10;99.90
67974;DHT22;54756;51.140;6.952;2023-12-07T00:54:28;1.10;99.90
67974;DHT22;54756;51.140;6.952;2023-12-07T00:56:29;1.10;99.90
67974;DHT22;54756;51.140;6.952;2023-12-07T00:58:29;1.00;99.90
67974;DHT22;54756;51.140;6.952;2023-12-07T01:00:30;1.00;99.90
67974;DHT22;54756;51.140;6.952;2023-12-07T01:02:30;1.00;99.90
67974;DHT22;54756;51.140;6.952;2023-12-07T01:04:31;1.00;99.90
67974;DHT22;54756;51.140;6.952;2023-12-07T01:06:32;1.00;99.90
67974;DHT22;54756;51.140;6.952;2023-12-07T01:08:32;1.00;99.90
67974;DHT22;54756;51.140;6.952;2023-12-07T01:10:33;1.00;99.90
67974;DHT22;54756;51.140;6.952;2023-12-07T01:12:34;1.00;99.90
67974;DHT22;54756;51.140;6.952;2023-12-07T01:14:36;1.00;99.90
67974;DHT22;54756;51.140;6.952;2023-12-07T01:16:36;0.90;99.90
67974;DHT22;54756;51.140;6.952;2023-12-07T01:18:37;0.90;99.90
67974;DHT22;54756;51.140;6.952;2023-12-07T01:20:37;0.90;99.90
67974;DHT22;54756;51.140;6.952;2023-12-07T01:22:39;0.90;99.90
67974;DHT22;54756;51.140;6.952;2023-12-07T01:24:40;0.90;99.90
67974;DHT22;54756;51.140;6.952;2023-12-07T01:26:41;0.90;99.90
67974;DHT22;54756;51.140;6.952;2023-12-07T01:28:41;0.90;99.90
67974;DHT22;54756;51.140;6.952;2023-12-07T01:30:42;0.90;99.90
67974;DHT22;54756;51.140;6.952;2023-12-07T01:32:42;0.90;99.90
67974;DHT22;54756;51.140;6.952;2023-12-07T01:34:43;0.90;99.90
67974;DHT22;54756;51.140;6.952;2023-12-07T01:36:43;1.00;99.90
67974;DHT22;54756;51.140;6.952;2023-12-07T01:38:44;0.90;99.90
67974;DHT22;54756;51.140;6.952;2023-12-07T01:40:45;1.00;99.90
67974;DHT22;54756;51.140;6.952;2023-12-07T01:42:52;1.00;99.90
67974;DHT22;54756;51.140;6.952;2023-12-07T01:44:53;1.00;99.90
67974;DHT22;54756;51.140;6.952;2023-12-07T01:46:54;1.00;99.90
67974;DHT22;54756;51.140;6.952;2023-12-07T01:48:54;1.00;99.90
67974;DHT22;54756;51.140;6.952;2023-12-07T01:50:57;1.00;99.90
67974;DHT22;54756;51.140;6.952;2023-12-07T01:53:01;1.00;99.90
67974;DHT22;54756;51.140;6.952;2023-12-07T01:55:02;1.00;99.90
67974;DHT22;54756;51.140;6.952;2023-12-07T01:57:03;1.10;99.90
67974;DHT22;54756;51.140;6.952;2023-12-07T01:59:04;1.10;99.90
67974;DHT22;54756;51.140;6.952;2023-12-07T02:01:04;1.10;99.90
67974;DHT22;54756;51.140;6.952;2023-12-07T02:03:06;1.20;99.90
67974;DHT22;54756;51.140;6.952;2023-12-07T02:05:07;1.20;99.90
67974;DHT22;54756;51.140;6.952;2023-12-07T02:07:07;1.20;99.90
67974;DHT22;54756;51.140;6.952;2023-12-07T02:09:08;1.20;99.90
67974;DHT22;54756;51.140;6.952;2023-12-07T02:11:09;1.20;99.90
67974;DHT22;54756;51.140;6.952;2023-12-07T02:13:10;1.20;99.90
67974;DHT22;54756;51.140;6.952;2023-12-07T02:15:11;1.20;99.90
67974;DHT22;54756;51.140;6.952;2023-12-07T02:17:18;1.30;99.90
67974;DHT22;54756;51.140;6.952;2023-12-07T02:19:31;1.30;99.90
67974;DHT22;54756;51.140;6.952;2023-12-07T02:21:51;1.30;99.90
67974;DHT22;54756;51.140;6.952;2023-12-07T02:23:53;1.30;99.90
67974;DHT22;54756;51.140;6.952;2023-12-07T02:25:54;1.30;99.90
67974;DHT22;54756;51.140;6.952;2023-12-07T02:27:58;1.40;99.90
67974;DHT22;54756;51.140;6.952;2023-12-07T02:29:58;1.40;99.90
67974;DHT22;54756;51.140;6.952;2023-12-07T02:31:59;1.40;99.90
67974;DHT22;54756;51.140;6.952;2023-12-07T02:34:00;1.50;99.90
67974;DHT22;54756;51.140;6.952;2023-12-07T02:36:00;1.50;99.90
67974;DHT22;54756;51.140;6.952;2023-12-07T02:38:01;1.50;99.90
67974;DHT22;54756;51.140;6.952;2023-12-07T02:40:05;1.50;99.90
67974;DHT22;54756;51.140;6.952;2023-12-07T02:42:11;1.50;99.90
67974;DHT22;54756;51.140;6.952;2023-12-07T02:44:11;1.50;99.90
67974;DHT22;54756;51.140;6.952;2023-12-07T02:46:12;1.50;99.90
67974;DHT22;54756;51.140;6.952;2023-12-07T02:48:13;1.50;99.90
67974;DHT22;54756;51.140;6.952;2023-12-07T02:50:14;1.60;99.90
67974;DHT22;54756;51.140;6.952;2023-12-07T02:52:15;1.60;99.90
67974;DHT22;54756;51.140;6.952;2023-12-07T02:54:15;1.60;99.90
67974;DHT22;54756;51.140;6.952;2023-12-07T02:56:16;1.60;99.90
67974;DHT22;54756;51.140;6.952;2023-12-07T02:58:16;1.70;99.90
67974;DHT22;54756;51.140;6.952;2023-12-07T03:00:17;1.70;99.90
67974;DHT22;54756;51.140;6.952;2023-12-07T03:02:18;1.70;99.90
67974;DHT22;54756;51.140;6.952;2023-12-07T03:04:18;1.70;99.90
67974;DHT22;54756;51.140;6.952;2023-12-07T03:06:19;1.80;99.90
67974;DHT22;54756;51.140;6.952;2023-12-07T03:08:20;1.80;99.90
67974;DHT22;54756;51.140;6.952;2023-12-07T03:10:20;1.80;99.90
67974;DHT22;54756;51.140;6.952;2023-12-07T03:12:21;1.80;99.90
67974;DHT22;54756;51.140;6.952;2023-12-07T03:14:23;1.80;99.90
67974;DHT22;54756;51.140;6.952;2023-12-07T03:16:23;1.90;99.90
67974;DHT22;54756;51.140;6.952;2023-12-07T03:18:24;1.90;99.90
67974;DHT22;54756;51.140;6.952;2023-12-07T03:20:25;1.90;99.90
67974;DHT22;54756;51.140;6.952;2023-12-07T03:22:26;1.90;99.90
67974;DHT22;54756;51.140;6.952;2023-12-07T03:24:27;2.00;99.90
67974;DHT22;54756;51.140;6.952;2023-12-07T03:26:27;2.00;99.90
67974;DHT22;54756;51.140;6.952;2023-12-07T03:28:28;2.00;99.90
67974;DHT22;54756;51.140;6.952;2023-12-07T03:30:28;2.00;99.90
67974;DHT22;54756;51.140;6.952;2023-12-07T03:32:29;2.10;99.90
67974;DHT22;54756;51.140;6.952;2023-12-07T03:34:29;2.10;99.90
67974;DHT22;54756;51.140;6.952;2023-12-07T03:36:30;2.10;99.90
67974;DHT22;54756;51.140;6.952;2023-12-07T03:38:30;2.10;99.90
67974;DHT22;54756;51.140;6.952;2023-12-07T03:40:31;2.20;99.90
67974;DHT22;54756;51.140;6.952;2023-12-07T03:42:31;2.20;99.90
67974;DHT22;54756;51.140;6.952;2023-12-07T03:44:32;2.20;99.90
67974;DHT22;54756;51.140;6.952;2023-12-07T03:46:32;2.20;99.90
67974;DHT22;54756;51.140;6.952;2023-12-07T03:48:33;2.30;99.90
67974;DHT22;54756;51.140;6.952;2023-12-07T03:50:34;2.30;99.90
67974;DHT22;54756;51.140;6.952;2023-12-07T03:52:35;2.30;99.90
67974;DHT22;54756;51.140;6.952;2023-12-07T03:54:35;2.30;99.90
67974;DHT22;54756;51.140;6.952;2023-12-07T03:56:36;2.30;99.90
67974;DHT22;54756;51.140;6.952;2023-12-07T03:58:36;2.40;99.90
67974;DHT22;54756;51.140;6.952;2023-12-07T04:00:37;2.40;99.90
67974;DHT22;54756;51.140;6.952;2023-12-07T04:02:37;2.40;99.90
67974;DHT22;54756;51.140;6.952;2023-12-07T04:04:38;2.40;99.90
67974;DHT22;54756;51.140;6.952;2023-12-07T04:06:39;2.40;99.90
67974;DHT22;54756;51.140;6.952;2023-12-07T04:08:39;2.40;99.90
67974;DHT22;54756;51.140;6.952;2023-12-07T04:10:40;2.50;99.90
67974;DHT22;54756;51.140;6.952;2023-12-07T04:12:41;2.50;99.90
67974;DHT22;54756;51.140;6.952;2023-12-07T04:14:41;2.50;99.90
67974;DHT22;54756;51.140;6.952;2023-12-07T04:16:42;2.50;99.90
67974;DHT22;54756;51.140;6.952;2023-12-07T04:18:42;2.50;99.90
67974;DHT22;54756;51.140;6.952;2023-12-07T04:20:43;2.50;99.90
67974;DHT22;54756;51.140;6.952;2023-12-07T04:22:44;2.50;99.90
67974;DHT22;54756;51.140;6.952;2023-12-07T04:24:45;2.60;99.90
67974;DHT22;54756;51.140;6.952;2023-12-07T04:26:46;2.60;99.90
67974;DHT22;54756;51.140;6.952;2023-12-07T04:28:46;2.60;99.90
67974;DHT22;54756;51.140;6.952;2023-12-07T04:30:47;2.60;99.90
67974;DHT22;54756;51.140;6.952;2023-12-07T04:32:47;2.60;99.90
67974;DHT22;54756;51.140;6.952;2023-12-07T04:34:48;2.60;99.90
67974;DHT22;54756;51.140;6.952;2023-12-07T04:36:49;2.60;99.90
67974;DHT22;54756;51.140;6.952;2023-12-07T04:38:50;2.70;99.90
67974;DHT22;54756;51.140;6.952;2023-12-07T04:40:50;2.70;99.90
67974;DHT22;54756;51.140;6.952;2023-12-07T04:42:51;2.70;99.90
67974;DHT22;54756;51.140;6.952;2023-12-07T04:44:52;2.70;99.90
67974;DHT22;54756;51.140;6.952;2023-12-07T04:46:52;2.70;99.90
67974;DHT22;54756;51.140;6.952;2023-12-07T04:48:53;2.70;99.90
67974;DHT22;54756;51.140;6.952;2023-12-07T04:50:53;2.70;99.90
67974;DHT22;54756;51.140;6.952;2023-12-07T04:52:54;2.70;99.90
67974;DHT22;54756;51.140;6.952;2023-12-07T04:54:55;2.70;99.90
67974;DHT22;54756;51.140;6.952;2023-12-07T04:56:55;2.80;99.90
67974;DHT22;54756;51.140;6.952;2023-12-07T04:58:56;2.80;99.90
67974;DHT22;54756;51.140;6.952;2023-12-07T05:00:56;2.80;99.90
67974;DHT22;54756;51.140;6.952;2023-12-07T05:02:57;2.80;99.90
67974;DHT22;54756;51.140;6.952;2023-12-07T05:04:57;2.80;99.90
67974;DHT22;54756;51.140;6.952;2023-12-07T05:06:58;2.80;99.90
67974;DHT22;54756;51.140;6.952;2023-12-07T05:08:58;2.90;99.90
67974;DHT22;54756;51.140;6.952;2023-12-07T05:10:59;2.90;99.90
67974;DHT22;54756;51.140;6.952;2023-12-07T05:13:00;2.80;99.90
67974;DHT22;54756;51.140;6.952;2023-12-07T05:15:01;2.90;99.90
67974;DHT22;54756;51.140;6.952;2023-12-07T05:17:03;2.90;99.90
67974;DHT22;54756;51.140;6.952;2023-12-07T05:19:03;2.90;99.90
67974;DHT22;54756;51.140;6.952;2023-12-07T05:21:04;2.90;99.90
67974;DHT22;54756;51.140;6.952;2023-12-07T05:23:05;2.90;99.90
67974;DHT22;54756;51.140;6.952;2023-12-07T05:25:06;2.90;99.90
67974;DHT22;54756;51.140;6.952;2023-12-07T05:27:06;2.90;99.90
67974;DHT22;54756;51.140;6.952;2023-12-07T05:29:07;2.90;99.90
67974;DHT22;54756;51.140;6.952;2023-12-07T05:31:08;2.90;99.90
67974;DHT22;54756;51.140;6.952;2023-12-07T05:33:08;2.90;99.90
67974;DHT22;54756;51.140;6.952;2023-12-07T05:35:09;2.90;99.90
67974;DHT22;54756;51.140;6.952;2023-12-07T05:37:09;3.00;99.90
67974;DHT22;54756;51.140;6.952;2023-12-07T05:39:10;3.00;99.90
67974;DHT22;54756;51.140;6.952;2023-12-07T05:41:11;3.00;99.90
67974;DHT22;54756;51.140;6.952;2023-12-07T05:43:13;3.00;99.90
67974;DHT22;54756;51.140;6.952;2023-12-07T05:45:13;3.00;99.90
67974;DHT22;54756;51.140;6.952;2023-12-07T05:47:14;3.00;99.90
67974;DHT22;54756;51.140;6.952;2023-12-07T05:49:15;3.00;99.90
67974;DHT22;54756;51.140;6.952;2023-12-07T05:51:17;2.90;99.90
67974;DHT22;54756;51.140;6.952;2023-12-07T05:53:18;3.00;99.90
67974;DHT22;54756;51.140;6.952;2023-12-07T05:55:19;2.90;99.90
67974;DHT22;54756;51.140;6.952;2023-12-07T05:57:19;2.90;99.90
67974;DHT22;54756;51.140;6.952;2023-12-07T05:59:20;2.90;99.90
67974;DHT22;54756;51.140;6.952;2023-12-07T06:01:20;2.90;99.90
67974;DHT22;54756;51.140;6.952;2023-12-07T06:03:21;2.90;99.90
67974;DHT22;54756;51.140;6.952;2023-12-07T06:05:21;2.90;99.90
67974;DHT22;54756;51.140;6.952;2023-12-07T06:07:22;2.90;99.90
67974;DHT22;54756;51.140;6.952;2023-12-07T06:09:23;2.90;99.90
67974;DHT22;54756;51.140;6.952;2023-12-07T06:11:23;2.90;99.90
67974;DHT22;54756;51.140;6.952;2023-12-07T06:13:24;2.80;99.90
67974;DHT22;54756;51.140;6.952;2023-12-07T06:15:24;2.80;99.90
67974;DHT22;54756;51.140;6.952;2023-12-07T06:17:25;2.80;99.90
67974;DHT22;54756;51.140;6.952;2023-12-07T06:19:26;2.80;99.90
67974;DHT22;54756;51.140;6.952;2023-12-07T06:21:26;2.80;99.90
67974;DHT22;54756;51.140;6.952;2023-12-07T06:23:30;2.70;99.90
67974;DHT22;54756;51.140;6.952;2023-12-07T06:25:30;2.70;99.90
67974;DHT22;54756;51.140;6.952;2023-12-07T06:27:31;2.70;99.90
67974;DHT22;54756;51.140;6.952;2023-12-07T06:29:31;2.70;99.90
67974;DHT22;54756;51.140;6.952;2023-12-07T06:31:32;2.70;99.90
67974;DHT22;54756;51.140;6.952;2023-12-07T06:33:33;2.70;99.90
67974;DHT22;54756;51.140;6.952;2023-12-07T06:35:33;2.70;99.90
67974;DHT22;54756;51.140;6.952;2023-12-07T06:37:34;2.70;99.90
67974;DHT22;54756;51.140;6.952;2023-12-07T06:39:34;2.70;99.90
67974;DHT22;54756;51.140;6.952;2023-12-07T06:41:35;2.60;99.90
67974;DHT22;54756;51.140;6.952;2023-12-07T06:43:35;2.60;99.90
67974;DHT22;54756;51.140;6.952;2023-12-07T06:45:36;2.60;99.90
67974;DHT22;54756;51.140;6.952;2023-12-07T06:47:37;2.60;99.90
67974;DHT22;54756;51.140;6.952;2023-12-07T06:49:38;2.60;99.90
67974;DHT22;54756;51.140;6.952;2023-12-07T06:51:39;2.60;99.90
67974;DHT22;54756;51.140;6.952;2023-12-07T06:53:39;2.50;99.90
67974;DHT22;54756;51.140;6.952;2023-12-07T06:55:41;2.50;99.90
67974;DHT22;54756;51.140;6.952;2023-12-07T06:57:43;2.50;99.90
67974;DHT22;54756;51.140;6.952;2023-12-07T06:59:43;2.50;99.90
67974;DHT22;54756;51.140;6.952;2023-12-07T07:01:44;2.50;99.90
67974;DHT22;54756;51.140;6.952;2023-12-07T07:03:44;2.50;99.90
67974;DHT22;54756;51.140;6.952;2023-12-07T07:05:45;2.50;99.90
67974;DHT22;54756;51.140;6.952;2023-12-07T07:07:45;2.40;99.90
67974;DHT22;54756;51.140;6.952;2023-12-07T07:09:46;2.40;99.90
67974;DHT22;54756;51.140;6.952;2023-12-07T07:11:49;2.40;99.90
67974;DHT22;54756;51.140;6.952;2023-12-07T07:13:50;2.40;99.90
67974;DHT22;54756;51.140;6.952;2023-12-07T07:15:51;2.40;99.90
67974;DHT22;54756;51.140;6.952;2023-12-07T07:17:51;2.40;99.90
67974;DHT22;54756;51.140;6.952;2023-12-07T07:19:52;2.40;99.90
67974;DHT22;54756;51.140;6.952;2023-12-07T07:21:54;2.40;99.90
67974;DHT22;54756;51.140;6.952;2023-12-07T07:23:55;2.30;99.90
67974;DHT22;54756;51.140;6.952;2023-12-07T07:25:56;2.30;99.90
67974;DHT22;54756;51.140;6.952;2023-12-07T07:27:57;2.30;99.90
67974;DHT22;54756;51.140;6.952;2023-12-07T07:29:57;2.30;99.90
67974;DHT22;54756;51.140;6.952;2023-12-07T07:31:58;2.30;99.90
67974;DHT22;54756;51.140;6.952;2023-12-07T07:33:58;2.30;99.90
67974;DHT22;54756;51.140;6.952;2023-12-07T07:35:59;2.30;99.90
67974;DHT22;54756;51.140;6.952;2023-12-07T07:38:00;2.30;99.90
67974;DHT22;54756;51.140;6.952;2023-12-07T07:40:00;2.30;99.90
67974;DHT22;54756;51.140;6.952;2023-12-07T07:42:01;2.30;99.90
67974;DHT22;54756;51.140;6.952;2023-12-07T07:44:01;2.30;99.90
67974;DHT22;54756;51.140;6.952;2023-12-07T07:46:06;2.20;99.90
67974;DHT22;54756;51.140;6.952;2023-12-07T07:48:06;2.20;99.90
67974;DHT22;54756;51.140;6.952;2023-12-07T07:50:07;2.20;99.90
67974;DHT22;54756;51.140;6.952;2023-12-07T07:52:08;2.20;99.90
67974;DHT22;54756;51.140;6.952;2023-12-07T07:54:08;2.20;99.90
67974;DHT22;54756;51.140;6.952;2023-12-07T07:56:09;2.20;99.90
67974;DHT22;54756;51.140;6.952;2023-12-07T07:58:10;2.20;99.90
67974;DHT22;54756;51.140;6.952;2023-12-07T08:00:11;2.20;99.90
67974;DHT22;54756;51.140;6.952;2023-12-07T08:02:13;2.20;99.90
67974;DHT22;54756;51.140;6.952;2023-12-07T08:04:13;2.20;99.90
67974;DHT22;54756;51.140;6.952;2023-12-07T08:06:14;2.20;99.90
67974;DHT22;54756;51.140;6.952;2023-12-07T08:08:14;2.20;99.90
67974;DHT22;54756;51.140;6.952;2023-12-07T08:10:15;2.20;99.90
67974;DHT22;54756;51.140;6.952;2023-12-07T08:12:16;2.20;99.90
67974;DHT22;54756;51.140;6.952;2023-12-07T08:14:16;2.20;99.90
67974;DHT22;54756;51.140;6.952;2023-12-07T08:16:17;2.20;99.90
67974;DHT22;54756;51.140;6.952;2023-12-07T08:18:17;2.20;99.90
67974;DHT22;54756;51.140;6.952;2023-12-07T08:20:18;2.20;99.90
67974;DHT22;54756;51.140;6.952;2023-12-07T08:22:18;2.20;99.90
67974;DHT22;54756;51.140;6.952;2023-12-07T08:24:20;2.20;99.90
67974;DHT22;54756;51.140;6.952;2023-12-07T08:26:21;2.20;99.90
67974;DHT22;54756;51.140;6.952;2023-12-07T08:28:22;2.20;99.90
67974;DHT22;54756;51.140;6.952;2023-12-07T08:30:23;2.20;99.90
67974;DHT22;54756;51.140;6.952;2023-12-07T08:32:24;2.20;99.90
67974;DHT22;54756;51.140;6.952;2023-12-07T08:34:26;2.20;99.90
67974;DHT22;54756;51.140;6.952;2023-12-07T08:36:26;2.20;99.90
67974;DHT22;54756;51.140;6.952;2023-12-07T08:38:27;2.20;99.90
67974;DHT22;54756;51.140;6.952;2023-12-07T08:40:27;2.20;99.90
67974;DHT22;54756;51.140;6.952;2023-12-07T08:42:28;2.20;99.90
67974;DHT22;54756;51.140;6.952;2023-12-07T08:44:31;2.30;99.90
67974;DHT22;54756;51.140;6.952;2023-12-07T08:46:31;2.20;99.90
67974;DHT22;54756;51.140;6.952;2023-12-07T08:48:32;2.20;99.90
67974;DHT22;54756;51.140;6.952;2023-12-07T08:50:33;2.30;99.90
67974;DHT22;54756;51.140;6.952;2023-12-07T08:52:34;2.20;99.90
67974;DHT22;54756;51.140;6.952;2023-12-07T08:54:34;2.30;99.90
67974;DHT22;54756;51.140;6.952;2023-12-07T08:56:36;2.30;99.90
67974;DHT22;54756;51.140;6.952;2023-12-07T08:58:36;2.30;99.90
67974;DHT22;54756;51.140;6.952;2023-12-07T09:00:37;2.30;99.90
67974;DHT22;54756;51.140;6.952;2023-12-07T09:02:38;2.30;99.90
67974;DHT22;54756;51.140;6.952;2023-12-07T09:04:39;2.30;99.90
67974;DHT22;54756;51.140;6.952;2023-12-07T09:06:39;2.30;99.90
67974;DHT22;54756;51.140;6.952;2023-12-07T09:08:40;2.30;99.90
67974;DHT22;54756;51.140;6.952;2023-12-07T09:10:40;2.30;99.90
67974;DHT22;54756;51.140;6.952;2023-12-07T09:12:41;2.30;99.90
67974;DHT22;54756;51.140;6.952;2023-12-07T09:14:42;2.30;99.90
67974;DHT22;54756;51.140;6.952;2023-12-07T09:16:43;2.30;99.90
67974;DHT22;54756;51.140;6.952;2023-12-07T09:18:45;2.30;99.90
67974;DHT22;54756;51.140;6.952;2023-12-07T09:20:46;2.30;99.90
67974;DHT22;54756;51.140;6.952;2023-12-07T09:22:47;2.30;99.90
67974;DHT22;54756;51.140;6.952;2023-12-07T09:24:48;2.30;99.90
67974;DHT22;54756;51.140;6.952;2023-12-07T09:26:49;2.30;99.90
67974;DHT22;54756;51.140;6.952;2023-12-07T09:28:49;2.30;99.90
67974;DHT22;54756;51.140;6.952;2023-12-07T09:30:50;2.30;99.90
67974;DHT22;54756;51.140;6.952;2023-12-07T09:32:50;2.40;99.90
67974;DHT22;54756;51.140;6.952;2023-12-07T09:34:51;2.40;99.90
67974;DHT22;54756;51.140;6.952;2023-12-07T09:37:11;2.40;99.90
67974;DHT22;54756;51.140;6.952;2023-12-07T09:39:13;2.40;99.90
67974;DHT22;54756;51.140;6.952;2023-12-07T09:41:13;2.40;99.90
67974;DHT22;54756;51.140;6.952;2023-12-07T09:43:14;2.40;99.90
67974;DHT22;54756;51.140;6.952;2023-12-07T09:45:15;2.40;99.90
67974;DHT22;54756;51.140;6.952;2023-12-07T09:47:18;2.40;99.90
67974;DHT22;54756;51.140;6.952;2023-12-07T09:49:19;2.40;99.90
67974;DHT22;54756;51.140;6.952;2023-12-07T09:51:20;2.40;99.90
67974;DHT22;54756;51.140;6.952;2023-12-07T09:53:21;2.50;99.90
67974;DHT22;54756;51.140;6.952;2023-12-07T09:55:21;2.50;99.90
67974;DHT22;54756;51.140;6.952;2023-12-07T09:57:22;2.50;99.90
67974;DHT22;54756;51.140;6.952;2023-12-07T09:59:23;2.50;99.90
67974;DHT22;54756;51.140;6.952;2023-12-07T10:01:28;2.50;99.90
67974;DHT22;54756;51.140;6.952;2023-12-07T10:03:29;2.50;99.90
67974;DHT22;54756;51.140;6.952;2023-12-07T10:05:31;2.50;99.90
67974;DHT22;54756;51.140;6.952;2023-12-07T10:07:35;2.60;99.90
67974;DHT22;54756;51.140;6.952;2023-12-07T10:09:40;2.60;99.90
67974;DHT22;54756;51.140;6.952;2023-12-07T10:11:41;2.60;99.90
67974;DHT22;54756;51.140;6.952;2023-12-07T10:13:42;2.60;99.90
67974;DHT22;54756;51.140;6.952;2023-12-07T10:15:43;2.60;99.90
67974;DHT22;54756;51.140;6.952;2023-12-07T10:17:57;2.60;99.90
67974;DHT22;54756;51.140;6.952;2023-12-07T10:20:08;2.60;99.90
67974;DHT22;54756;51.140;6.952;2023-12-07T10:22:15;2.60;99.90
67974;DHT22;54756;51.140;6.952;2023-12-07T10:24:20;2.60;99.90
67974;DHT22;54756;51.140;6.952;2023-12-07T10:26:21;2.60;99.90
67974;DHT22;54756;51.140;6.952;2023-12-07T10:28:22;2.60;99.90
67974;DHT22;54756;51.140;6.952;2023-12-07T10:30:22;2.60;99.90
67974;DHT22;54756;51.140;6.952;2023-12-07T10:32:26;2.60;99.90
67974;DHT22;54756;51.140;6.952;2023-12-07T10:34:27;2.60;99.90
67974;DHT22;54756;51.140;6.952;2023-12-07T10:36:27;2.50;99.90
67974;DHT22;54756;51.140;6.952;2023-12-07T10:38:28;2.60;99.90
67974;DHT22;54756;51.140;6.952;2023-12-07T10:40:30;2.60;99.90
67974;DHT22;54756;51.140;6.952;2023-12-07T10:42:33;2.60;99.90
67974;DHT22;54756;51.140;6.952;2023-12-07T10:44:40;2.60;99.90
67974;DHT22;54756;51.140;6.952;2023-12-07T10:46:42;2.60;99.90
67974;DHT22;54756;51.140;6.952;2023-12-07T10:48:44;2.60;99.90
67974;DHT22;54756;51.140;6.952;2023-12-07T10:50:46;2.70;99.90
67974;DHT22;54756;51.140;6.952;2023-12-07T10:52:54;2.70;99.90
67974;DHT22;54756;51.140;6.952;2023-12-07T10:55:08;2.70;99.90
67974;DHT22;54756;51.140;6.952;2023-12-07T10:57:12;2.70;99.90
67974;DHT22;54756;51.140;6.952;2023-12-07T10:59:14;2.70;99.90
67974;DHT22;54756;51.140;6.952;2023-12-07T11:01:17;2.70;99.90
67974;DHT22;54756;51.140;6.952;2023-12-07T11:03:18;2.70;99.90
67974;DHT22;54756;51.140;6.952;2023-12-07T11:05:21;2.80;99.90
67974;DHT22;54756;51.140;6.952;2023-12-07T11:07:24;2.80;99.90
67974;DHT22;54756;51.140;6.952;2023-12-07T11:09:28;2.80;99.90
67974;DHT22;54756;51.140;6.952;2023-12-07T11:11:41;2.80;99.90
67974;DHT22;54756;51.140;6.952;2023-12-07T11:13:58;2.80;99.90
67974;DHT22;54756;51.140;6.952;2023-12-07T11:16:00;2.80;99.90
67974;DHT22;54756;51.140;6.952;2023-12-07T11:18:02;2.80;99.90
67974;DHT22;54756;51.140;6.952;2023-12-07T11:20:02;2.80;99.90
67974;DHT22;54756;51.140;6.952;2023-12-07T11:22:09;2.80;99.90
67974;DHT22;54756;51.140;6.952;2023-12-07T11:24:16;2.80;99.90
67974;DHT22;54756;51.140;6.952;2023-12-07T11:26:26;2.80;99.90
67974;DHT22;54756;51.140;6.952;2023-12-07T11:28:38;2.80;99.90
67974;DHT22;54756;51.140;6.952;2023-12-07T11:30:42;2.80;99.90
67974;DHT22;54756;51.140;6.952;2023-12-07T11:32:44;2.80;99.90
67974;DHT22;54756;51.140;6.952;2023-12-07T11:34:44;2.80;99.90
67974;DHT22;54756;51.140;6.952;2023-12-07T11:36:46;2.80;99.90
67974;DHT22;54756;51.140;6.952;2023-12-07T11:41:06;2.80;99.90
67974;DHT22;54756;51.140;6.952;2023-12-07T11:43:07;2.80;99.90
67974;DHT22;54756;51.140;6.952;2023-12-07T11:45:08;2.80;99.90
67974;DHT22;54756;51.140;6.952;2023-12-07T11:47:09;2.80;99.90
67974;DHT22;54756;51.140;6.952;2023-12-07T11:49:09;2.80;99.90
67974;DHT22;54756;51.140;6.952;2023-12-07T11:51:11;2.80;99.90
67974;DHT22;54756;51.140;6.952;2023-12-07T11:53:12;2.80;99.90
67974;DHT22;54756;51.140;6.952;2023-12-07T11:55:12;2.90;99.90
67974;DHT22;54756;51.140;6.952;2023-12-07T11:57:17;2.90;99.90
67974;DHT22;54756;51.140;6.952;2023-12-07T11:59:18;2.90;99.90
67974;DHT22;54756;51.140;6.952;2023-12-07T12:01:18;2.90;99.90
67974;DHT22;54756;51.140;6.952;2023-12-07T12:03:19;2.90;99.90
67974;DHT22;54756;51.140;6.952;2023-12-07T12:05:20;2.90;99.90
67974;DHT22;54756;51.140;6.952;2023-12-07T12:07:21;2.90;99.90
67974;DHT22;54756;51.140;6.952;2023-12-07T12:09:23;2.90;99.90
67974;DHT22;54756;51.140;6.952;2023-12-07T12:11:24;3.00;99.90
67974;DHT22;54756;51.140;6.952;2023-12-07T12:13:29;3.00;99.90
67974;DHT22;54756;51.140;6.952;2023-12-07T12:15:29;3.00;99.90
67974;DHT22;54756;51.140;6.952;2023-12-07T12:17:30;3.00;99.90
67974;DHT22;54756;51.140;6.952;2023-12-07T12:19:32;3.00;99.90
67974;DHT22;54756;51.140;6.952;2023-12-07T12:21:38;3.10;99.90
67974;DHT22;54756;51.140;6.952;2023-12-07T12:23:39;3.10;99.90
67974;DHT22;54756;51.140;6.952;2023-12-07T12:25:40;3.10;99.90
67974;DHT22;54756;51.140;6.952;2023-12-07T12:27:41;3.10;99.90
67974;DHT22;54756;51.140;6.952;2023-12-07T12:29:42;3.10;99.90
67974;DHT22;54756;51.140;6.952;2023-12-07T12:31:43;3.10;99.90
67974;DHT22;54756;51.140;6.952;2023-12-07T12:33:43;3.20;99.90
67974;DHT22;54756;51.140;6.952;2023-12-07T12:35:44;3.10;99.90
67974;DHT22;54756;51.140;6.952;2023-12-07T12:37:46;3.20;99.90
67974;DHT22;54756;51.140;6.952;2023-12-07T12:39:46;3.20;99.90
67974;DHT22;54756;51.140;6.952;2023-12-07T12:41:47;3.20;99.90
67974;DHT22;54756;51.140;6.952;2023-12-07T12:43:48;3.20;99.90
67974;DHT22;54756;51.140;6.952;2023-12-07T12:45:49;3.20;99.90
67974;DHT22;54756;51.140;6.952;2023-12-07T12:47:49;3.30;99.90
67974;DHT22;54756;51.140;6.952;2023-12-07T12:49:50;3.30;99.90
67974;DHT22;54756;51.140;6.952;2023-12-07T12:51:51;3.30;99.90
67974;DHT22;54756;51.140;6.952;2023-12-07T12:53:55;3.30;99.90
67974;DHT22;54756;51.140;6.952;2023-12-07T12:55:56;3.30;99.90
67974;DHT22;54756;51.140;6.952;2023-12-07T12:57:58;3.40;99.90
67974;DHT22;54756;51.140;6.952;2023-12-07T13:00:00;3.40;99.90